createdAt,value
2022-08-07T00:02:36.164Z,0.30
2022-08-07T00:04:11.433Z,0.30
2022-08-07T00:06:52.185Z,0.40
2022-08-07T00:09:22.451Z,0.57
2022-08-07T00:11:55.674Z,0.40
2022-08-07T00:14:31.326Z,0.40
2022-08-07T00:16:59.904Z,0.32
2022-08-07T00:20:00.398Z,0.47
2022-08-07T00:22:34.570Z,0.35
2022-08-07T00:25:03.896Z,0.30
2022-08-07T00:27:51.890Z,0.60
2022-08-07T00:30:21.789Z,0.50
2022-08-07T00:32:55.712Z,0.30
2022-08-07T00:35:23.284Z,0.40
2022-08-07T00:37:51.661Z,0.50
2022-08-07T00:40:39.982Z,0.52
2022-08-07T00:43:09.930Z,0.30
2022-08-07T00:45:39.501Z,0.68
2022-08-07T00:48:11.010Z,0.50
2022-08-07T00:50:46.168Z,0.40
2022-08-07T00:53:20.164Z,0.47
2022-08-07T00:56:02.158Z,0.60
2022-08-07T00:58:30.978Z,0.60
2022-08-07T01:01:00.358Z,0.93
2022-08-07T01:03:56.660Z,0.40
2022-08-07T01:06:17.289Z,0.57
2022-08-07T01:08:53.079Z,0.57
2022-08-07T01:12:10.025Z,0.60
2022-08-07T01:14:09.661Z,0.60
2022-08-07T01:16:39.807Z,0.50
2022-08-07T01:19:18.878Z,0.43
2022-08-07T01:21:50.005Z,0.70
2022-08-07T01:24:22.244Z,0.50
2022-08-07T01:26:52.775Z,0.38
2022-08-07T01:29:23.390Z,0.80
2022-08-07T01:31:59.377Z,0.45
2022-08-07T01:34:30.721Z,0.40
2022-08-07T01:37:00.182Z,0.47
2022-08-07T01:39:40.437Z,0.50
2022-08-07T01:42:38.269Z,0.40
2022-08-07T01:45:03.605Z,0.50
2022-08-07T01:48:29.616Z,0.40
2022-08-07T01:50:28.537Z,0.38
2022-08-07T01:53:01.175Z,0.40
2022-08-07T01:55:40.202Z,0.40
2022-08-07T01:58:29.064Z,0.60
2022-08-07T02:01:09.398Z,0.45
2022-08-07T02:03:48.729Z,0.40
2022-08-07T02:06:30.794Z,0.40
2022-08-07T02:09:04.489Z,0.28
2022-08-07T02:12:03.572Z,0.50
2022-08-07T02:14:36.620Z,0.50
2022-08-07T02:17:11.175Z,0.40
2022-08-07T02:20:05.005Z,0.43
2022-08-07T02:22:31.726Z,0.63
2022-08-07T02:25:01.604Z,0.40
2022-08-07T02:27:35.936Z,0.40
2022-08-07T02:30:09.802Z,0.50
2022-08-07T02:32:39.462Z,0.38
2022-08-07T02:36:29.914Z,0.60
2022-08-07T02:38:15.776Z,0.28
2022-08-07T02:40:46.603Z,0.70
2022-08-07T02:43:16.398Z,0.40
2022-08-07T02:46:00.694Z,0.50
2022-08-07T02:50:58.316Z,0.55
2022-08-07T02:53:38.638Z,0.68
2022-08-07T02:56:17.401Z,0.55
2022-08-07T02:58:51.081Z,0.57
2022-08-07T03:01:35.739Z,0.40
2022-08-07T03:04:07.202Z,0.50
2022-08-07T03:06:37.612Z,0.70
2022-08-07T03:09:07.875Z,0.50
2022-08-07T03:11:52.476Z,0.60
2022-08-07T03:14:25.765Z,0.80
2022-08-07T03:16:53.366Z,0.40
2022-08-07T03:19:21.572Z,0.60
2022-08-07T03:21:51.118Z,0.60
2022-08-07T03:24:26.878Z,0.57
2022-08-07T03:27:01.059Z,0.40
2022-08-07T03:29:33.888Z,0.40
2022-08-07T03:32:13.071Z,0.28
2022-08-07T03:34:47.472Z,0.40
2022-08-07T03:37:37.376Z,0.65
2022-08-07T03:40:15.856Z,0.60
2022-08-07T03:42:46.218Z,0.50
2022-08-07T03:45:29.457Z,0.45
2022-08-07T03:47:58.980Z,0.40
2022-08-07T03:50:28.630Z,0.70
2022-08-07T03:52:57.984Z,0.70
2022-08-07T03:55:53.406Z,0.60
2022-08-07T03:59:05.243Z,0.50
2022-08-07T04:01:02.655Z,0.40
2022-08-07T04:03:49.537Z,0.45
2022-08-07T04:06:38.024Z,0.50
2022-08-07T04:09:05.599Z,0.40
2022-08-07T04:12:26.933Z,0.60
2022-08-07T04:14:37.690Z,0.50
2022-08-07T04:17:19.855Z,0.60
2022-08-07T04:19:52.187Z,0.60
2022-08-07T04:22:27.384Z,0.63
2022-08-07T04:27:26.552Z,0.40
2022-08-07T04:30:01.055Z,0.50
2022-08-07T04:32:34.377Z,0.50
2022-08-07T04:35:03.896Z,0.68
2022-08-07T04:38:00.924Z,0.47
2022-08-07T04:40:20.738Z,0.80
2022-08-07T04:42:52.369Z,0.60
2022-08-07T04:45:57.447Z,0.50
2022-08-07T04:48:13.863Z,0.70
2022-08-07T04:50:54.129Z,0.50
2022-08-07T04:53:39.966Z,0.70
2022-08-07T04:58:11.699Z,0.60
2022-08-07T05:00:12.066Z,0.75
2022-08-07T05:02:16.617Z,0.45
2022-08-07T05:04:50.321Z,0.47
2022-08-07T05:07:30.386Z,0.60
2022-08-07T05:10:01.779Z,0.65
2022-08-07T05:12:37.440Z,0.90
2022-08-07T05:15:25.332Z,0.60
2022-08-07T05:17:58.005Z,0.65
2022-08-07T05:20:33.405Z,0.60
2022-08-07T05:23:15.318Z,0.70
2022-08-07T05:26:11.524Z,0.93
2022-08-07T05:28:34.560Z,0.47
2022-08-07T05:31:03.697Z,0.60
2022-08-07T05:33:36.992Z,0.80
2022-08-07T05:36:07.961Z,0.60
2022-08-07T05:38:58.104Z,0.50
2022-08-07T05:42:02.583Z,0.60
2022-08-07T05:44:29.200Z,0.73
2022-08-07T05:46:58.106Z,0.80
2022-08-07T05:49:40.436Z,0.57
2022-08-07T05:52:11.777Z,0.50
2022-08-07T05:54:53.100Z,0.60
2022-08-07T05:57:26.561Z,0.80
2022-08-07T06:02:30.758Z,0.50
2022-08-07T06:05:04.496Z,2.03
2022-08-07T06:08:14.775Z,0.73
2022-08-07T06:10:21.167Z,0.50
2022-08-07T06:12:50.125Z,0.57
2022-08-07T06:15:20.010Z,0.60
2022-08-07T06:17:53.364Z,0.70
2022-08-07T06:20:25.648Z,0.60
2022-08-07T06:23:45.781Z,0.70
2022-08-07T06:26:00.072Z,0.63
2022-08-07T06:28:28.665Z,0.60
2022-08-07T06:30:58.204Z,0.65
2022-08-07T06:33:26.617Z,0.77
2022-08-07T06:36:13.026Z,0.60
2022-08-07T06:38:59.214Z,0.40
2022-08-07T06:42:01.529Z,0.70
2022-08-07T06:44:22.392Z,0.50
2022-08-07T06:46:53.716Z,0.55
2022-08-07T06:49:51.136Z,0.50
2022-08-07T06:52:31.718Z,0.73
2022-08-07T06:55:31.345Z,0.70
2022-08-07T06:57:59.880Z,0.52
2022-08-07T07:00:28.641Z,0.40
2022-08-07T07:02:58.261Z,0.40
2022-08-07T07:06:03.685Z,0.50
2022-08-07T07:08:18.921Z,0.50
2022-08-07T07:10:57.073Z,0.68
2022-08-07T07:13:56.072Z,0.70
2022-08-07T07:16:27.592Z,0.60
2022-08-07T07:19:11.215Z,0.60
2022-08-07T07:22:04.900Z,0.50
2022-08-07T07:24:56.636Z,0.50
2022-08-07T07:27:35.838Z,0.50
2022-08-07T07:30:26.536Z,0.50
2022-08-07T07:33:07.642Z,0.40
2022-08-07T07:35:54.770Z,0.60
2022-08-07T07:38:25.884Z,0.73
2022-08-07T07:41:02.152Z,0.50
2022-08-07T07:43:47.695Z,0.65
2022-08-07T07:46:37.965Z,0.40
2022-08-07T07:50:15.889Z,0.47
2022-08-07T07:51:57.847Z,0.50
2022-08-07T07:54:28.359Z,0.70
2022-08-07T07:56:58.911Z,0.50
2022-08-07T07:59:52.210Z,0.40
2022-08-07T08:02:34.140Z,0.50
2022-08-07T08:05:05.452Z,0.70
2022-08-07T08:07:59.909Z,0.50
2022-08-07T08:10:35.683Z,0.50
2022-08-07T08:13:10.600Z,0.40
2022-08-07T08:15:58.905Z,0.50
2022-08-07T08:18:29.484Z,0.40
2022-08-07T08:20:59.625Z,0.60
2022-08-07T08:23:47.381Z,0.50
2022-08-07T08:26:34.651Z,0.40
2022-08-07T08:29:05.784Z,0.13
2022-08-07T08:32:17.092Z,0.60
2022-08-07T08:34:29.415Z,0.43
2022-08-07T08:36:58.808Z,0.40
2022-08-07T08:39:39.727Z,0.20
2022-08-07T08:42:25.767Z,0.30
2022-08-07T08:45:04.087Z,0.20
2022-08-07T08:47:52.199Z,0.20
2022-08-07T08:50:28.259Z,0.30
2022-08-07T08:53:07.203Z,0.25
2022-08-07T08:55:55.379Z,0.22
2022-08-07T08:58:34.948Z,0.10
2022-08-07T09:01:15.375Z,0.25
2022-08-07T09:03:55.453Z,0.20
2022-08-07T09:06:36.517Z,0.30
2022-08-07T09:09:20.815Z,0.20
2022-08-07T09:12:02.771Z,0.28
2022-08-07T09:16:20.344Z,0.22
2022-08-07T09:18:20.588Z,0.40
2022-08-07T09:21:01.915Z,0.40
2022-08-07T09:24:32.048Z,0.30
2022-08-07T09:26:32.171Z,0.60
2022-08-07T09:30:01.042Z,0.30
2022-08-07T09:31:57.799Z,0.28
2022-08-07T09:34:33.580Z,0.30
2022-08-07T09:37:07.100Z,0.60
2022-08-07T09:39:54.568Z,0.20
2022-08-07T09:42:38.765Z,0.22
2022-08-07T09:46:29.070Z,0.20
2022-08-07T09:48:14.614Z,0.30
2022-08-07T09:51:03.956Z,0.30
2022-08-07T09:53:55.096Z,0.30
2022-08-07T09:56:46.933Z,0.20
2022-08-07T09:59:44.666Z,0.22
2022-08-07T10:02:55.145Z,0.30
2022-08-07T10:05:59.164Z,0.20
2022-08-07T10:08:45.188Z,0.10
2022-08-07T10:14:31.723Z,0.13
2022-08-07T10:17:16.517Z,0.20
2022-08-07T10:20:13.063Z,0.20
2022-08-07T10:22:58.415Z,0.20
2022-08-07T10:25:45.736Z,0.30
2022-08-07T10:28:35.903Z,0.20
2022-08-07T10:31:38.657Z,0.13
2022-08-07T10:34:32.188Z,0.28
2022-08-07T10:37:12.775Z,0.20
2022-08-07T10:40:03.216Z,0.20
2022-08-07T10:42:41.179Z,0.20
2022-08-07T10:45:45.117Z,0.20
2022-08-07T10:48:34.983Z,0.17
2022-08-07T10:51:16.879Z,0.20
2022-08-07T10:54:07.465Z,0.20
2022-08-07T10:56:44.923Z,0.10
2022-08-07T10:59:44.153Z,0.30
2022-08-07T11:02:33.627Z,0.20
2022-08-07T11:05:14.808Z,0.20
2022-08-07T11:08:00.478Z,0.20
2022-08-07T11:10:37.381Z,0.17
2022-08-07T11:14:41.830Z,0.20
2022-08-07T11:16:07.093Z,0.10
2022-08-07T11:18:37.919Z,0.20
2022-08-07T11:21:14.210Z,0.28
2022-08-07T11:23:52.101Z,0.20
2022-08-07T11:26:29.127Z,0.20
2022-08-07T11:29:05.726Z,0.10
2022-08-07T11:31:49.950Z,0.30
2022-08-07T11:34:25.602Z,0.20
2022-08-07T11:37:00.760Z,0.20
2022-08-07T11:40:00.991Z,0.30
2022-08-07T11:42:40.118Z,0.20
2022-08-07T11:45:23.781Z,0.20
2022-08-07T11:48:29.866Z,0.15
2022-08-07T11:51:41.453Z,0.20
2022-08-07T11:54:17.442Z,0.90
2022-08-07T11:57:14.137Z,0.40
2022-08-07T12:00:10.988Z,0.30
2022-08-07T12:03:41.521Z,0.20
2022-08-07T12:06:37.229Z,0.30
2022-08-07T12:09:16.501Z,0.25
2022-08-07T12:12:09.958Z,0.20
2022-08-07T12:14:55.450Z,0.22
2022-08-07T12:17:35.290Z,0.13
2022-08-07T12:20:18.497Z,0.25
2022-08-07T12:23:15.066Z,0.20
2022-08-07T12:26:03.083Z,0.30
2022-08-07T12:28:49.787Z,0.20
2022-08-07T12:31:27.764Z,0.30
2022-08-07T12:34:17.140Z,0.30
2022-08-07T12:36:49.331Z,0.25
2022-08-07T12:39:44.302Z,0.10
2022-08-07T12:42:12.102Z,0.20
2022-08-07T12:44:45.076Z,0.22
2022-08-07T12:47:26.790Z,0.10
2022-08-07T12:50:05.006Z,0.20
2022-08-07T12:52:54.954Z,0.00
2022-08-07T12:55:41.053Z,0.20
2022-08-07T12:58:13.389Z,0.30
2022-08-07T13:00:50.871Z,0.25
2022-08-07T13:04:02.068Z,0.10
2022-08-07T13:07:00.824Z,0.20
2022-08-07T13:10:20.426Z,0.20
2022-08-07T13:13:02.114Z,0.30
2022-08-07T13:15:38.208Z,0.22
2022-08-07T13:18:26.582Z,0.40
2022-08-07T13:21:00.766Z,0.13
2022-08-07T13:24:00.607Z,0.30
2022-08-07T13:26:35.039Z,0.20
2022-08-07T13:29:12.452Z,0.20
2022-08-07T13:31:57.879Z,0.28
2022-08-07T13:34:38.087Z,0.10
2022-08-07T13:37:20.065Z,0.20
2022-08-07T13:40:35.588Z,0.20
2022-08-07T13:42:45.650Z,0.20
2022-08-07T13:46:06.665Z,0.30
2022-08-07T13:48:08.825Z,0.20
2022-08-07T13:51:00.009Z,0.20
2022-08-07T13:53:55.288Z,0.20
2022-08-07T13:56:35.942Z,0.20
2022-08-07T13:59:12.612Z,0.30
2022-08-07T14:01:51.495Z,0.38
2022-08-07T14:04:35.691Z,0.10
2022-08-07T14:07:09.273Z,0.17
2022-08-07T14:10:01.534Z,0.28
2022-08-07T14:12:36.287Z,0.20
2022-08-07T14:15:19.160Z,0.20
2022-08-07T14:18:24.450Z,0.20
2022-08-07T14:20:49.164Z,0.20
2022-08-07T14:23:58.921Z,0.30
2022-08-07T14:26:23.654Z,0.20
2022-08-07T14:29:10.669Z,0.10
2022-08-07T14:31:56.160Z,0.30
2022-08-07T14:34:29.878Z,0.20
2022-08-07T14:37:01.714Z,0.10
2022-08-07T14:40:16.375Z,0.25
2022-08-07T14:43:55.186Z,0.10
2022-08-07T14:48:20.935Z,0.28
2022-08-07T14:50:53.265Z,0.10
2022-08-07T14:54:05.600Z,0.30
2022-08-07T14:56:14.061Z,0.13
2022-08-07T14:58:44.784Z,0.20
2022-08-07T15:01:22.475Z,0.20
2022-08-07T15:03:52.487Z,0.10
2022-08-07T15:06:26.516Z,0.13
2022-08-07T15:08:55.784Z,0.10
2022-08-07T15:14:21.731Z,0.22
2022-08-07T15:16:55.596Z,0.20
2022-08-07T15:22:23.175Z,0.20
2022-08-07T15:25:16.942Z,0.30
2022-08-07T15:28:30.697Z,0.20
2022-08-07T15:33:33.634Z,0.10
2022-08-07T15:36:07.485Z,0.17
2022-08-07T15:38:59.158Z,0.03
2022-08-07T15:42:45.203Z,0.20
2022-08-07T15:44:23.620Z,0.20
2022-08-07T15:46:58.256Z,0.20
2022-08-07T15:52:30.215Z,0.40
2022-08-07T15:55:02.739Z,0.20
2022-08-07T15:57:47.627Z,0.10
2022-08-07T16:00:31.002Z,0.20
2022-08-07T16:03:04.566Z,0.30
2022-08-07T16:05:33.007Z,0.32
2022-08-07T16:08:32.553Z,0.25
2022-08-07T16:10:58.558Z,0.20
2022-08-07T16:14:03.303Z,0.20
2022-08-07T16:16:43.005Z,0.10
2022-08-07T16:19:42.898Z,0.20
2022-08-07T16:22:38.732Z,0.32
2022-08-07T16:25:55.555Z,0.28
2022-08-07T16:30:07.141Z,0.30
2022-08-07T16:31:51.477Z,0.10
2022-08-07T16:34:37.767Z,0.40
2022-08-07T16:38:05.267Z,0.20
2022-08-07T16:40:35.385Z,0.35
2022-08-07T16:43:12.903Z,0.35
2022-08-07T16:46:11.043Z,0.20
2022-08-07T16:50:29.278Z,0.25
2022-08-07T16:52:51.964Z,0.20
2022-08-07T16:55:15.002Z,0.20
2022-08-07T16:58:01.974Z,0.40
2022-08-07T17:00:40.871Z,0.20
2022-08-07T17:03:18.452Z,0.10
2022-08-07T17:06:18.856Z,0.20
2022-08-07T17:09:10.797Z,0.20
2022-08-07T17:12:04.977Z,0.22
2022-08-07T17:14:38.244Z,0.40
2022-08-07T17:17:16.127Z,0.50
2022-08-07T17:20:02.620Z,0.30
2022-08-07T17:22:57.127Z,0.28
2022-08-07T17:25:47.729Z,0.60
2022-08-07T17:28:22.160Z,0.30
2022-08-07T17:30:59.407Z,0.30
2022-08-07T17:34:10.022Z,0.28
2022-08-07T17:36:26.166Z,0.50
2022-08-07T17:39:10.500Z,0.38
2022-08-07T17:42:02.531Z,0.32
2022-08-07T17:44:42.691Z,0.25
2022-08-07T17:47:38.723Z,0.50
2022-08-07T17:50:16.747Z,0.50
2022-08-07T17:52:55.332Z,0.40
2022-08-07T17:56:00.112Z,0.28
2022-08-07T17:58:31.338Z,0.70
2022-08-07T18:01:03.635Z,0.40
2022-08-07T18:04:06.910Z,0.60
2022-08-07T18:06:43.071Z,0.50
2022-08-07T18:09:17.872Z,0.70
2022-08-07T18:12:19.971Z,0.40
2022-08-07T18:15:02.719Z,0.32
2022-08-07T18:18:47.450Z,0.70
2022-08-07T18:21:03.253Z,0.70
2022-08-07T18:23:42.984Z,0.38
2022-08-07T18:26:22.453Z,0.50
2022-08-07T18:30:06.902Z,0.60
2022-08-07T18:32:08.874Z,0.50
2022-08-07T18:35:00.859Z,0.40
2022-08-07T18:38:55.284Z,0.88
2022-08-07T18:40:53.438Z,0.43
2022-08-07T18:43:48.861Z,0.47
2022-08-07T18:46:27.379Z,0.65
2022-08-07T18:50:30.759Z,0.80
2022-08-07T18:52:33.817Z,0.55
2022-08-07T18:54:52.081Z,0.82
2022-08-07T18:57:38.606Z,0.70
2022-08-07T19:00:32.890Z,1.67
2022-08-07T19:03:11.944Z,0.60
2022-08-07T19:06:02.051Z,0.77
2022-08-07T19:08:46.631Z,0.65
2022-08-07T19:11:36.002Z,0.68
2022-08-07T19:14:17.399Z,0.88
2022-08-07T19:17:05.612Z,0.70
2022-08-07T19:19:49.017Z,0.90
2022-08-07T19:22:31.166Z,0.80
2022-08-07T19:24:58.970Z,1.00
2022-08-07T19:28:58.268Z,0.75
2022-08-07T19:31:00.402Z,0.85
2022-08-07T19:33:17.263Z,0.75
2022-08-07T19:35:54.664Z,0.82
2022-08-07T19:38:24.458Z,0.70
2022-08-07T19:41:00.422Z,0.70
2022-08-07T19:43:48.720Z,0.73
2022-08-07T19:46:32.014Z,0.52
2022-08-07T19:49:05.949Z,0.90
2022-08-07T19:51:52.680Z,0.77
2022-08-07T19:54:33.334Z,0.88
2022-08-07T19:58:01.301Z,0.90
2022-08-07T20:00:09.057Z,0.50
2022-08-07T20:02:53.272Z,0.65
2022-08-07T20:05:27.911Z,0.60
2022-08-07T20:07:59.098Z,0.60
2022-08-07T20:10:35.535Z,0.70
2022-08-07T20:13:23.685Z,1.02
2022-08-07T20:15:53.995Z,0.50
2022-08-07T20:18:32.261Z,0.70
2022-08-07T20:21:14.432Z,0.88
2022-08-07T20:23:54.081Z,1.17
2022-08-07T20:26:29.901Z,0.65
2022-08-07T20:29:10.160Z,0.75
2022-08-07T20:31:46.548Z,0.80
2022-08-07T20:34:34.422Z,0.80
2022-08-07T20:37:10.191Z,0.60
2022-08-07T20:40:02.677Z,0.70
2022-08-07T20:42:30.896Z,0.82
2022-08-07T21:02:01.507Z,0.90
2022-08-07T21:04:32.332Z,0.93
2022-08-07T21:07:03.909Z,0.85
2022-08-07T21:09:52.528Z,0.80
2022-08-07T21:12:30.934Z,0.73
2022-08-07T21:15:03.835Z,0.57
2022-08-07T21:18:03.121Z,0.60
2022-08-07T21:20:29.861Z,0.70
2022-08-07T21:23:08.304Z,1.23
2022-08-07T21:25:56.097Z,0.95
2022-08-07T21:28:50.048Z,0.90
2022-08-07T21:31:49.249Z,0.85
2022-08-07T21:34:21.794Z,0.70
2022-08-07T21:37:00.429Z,0.90
2022-08-07T21:39:47.714Z,0.70
2022-08-07T21:42:49.471Z,0.80
2022-08-07T21:46:04.707Z,1.05
2022-08-07T21:48:28.818Z,0.90
2022-08-07T21:51:20.401Z,0.88
2022-08-07T21:53:54.458Z,0.77
2022-08-07T21:56:36.148Z,1.30
2022-08-07T21:59:10.623Z,1.00
2022-08-07T22:01:50.335Z,0.88
2022-08-07T22:04:51.194Z,0.60
2022-08-07T22:07:31.708Z,0.70
2022-08-07T22:10:17.008Z,0.70
2022-08-07T22:12:49.606Z,0.88
2022-08-07T22:16:39.028Z,0.80
2022-08-07T22:18:12.195Z,0.90
2022-08-07T22:20:49.526Z,1.00
2022-08-07T22:23:25.290Z,0.95
2022-08-07T22:26:02.308Z,1.20
2022-08-07T22:28:41.932Z,0.82
2022-08-07T22:31:56.213Z,1.20
2022-08-07T22:34:16.553Z,0.85
2022-08-07T22:36:52.924Z,1.00
2022-08-07T22:39:30.027Z,0.93
2022-08-07T22:42:25.923Z,1.40
2022-08-07T22:44:59.135Z,1.13
2022-08-07T22:47:40.671Z,0.93
2022-08-07T22:50:29.076Z,0.70
2022-08-07T22:53:18.279Z,1.00
2022-08-07T22:56:09.062Z,0.90
2022-08-07T22:58:56.131Z,0.80
2022-08-07T23:01:50.707Z,0.93
2022-08-07T23:07:18.456Z,0.80
2022-08-07T23:10:37.797Z,1.13
2022-08-07T23:13:11.790Z,1.13
2022-08-07T23:16:06.452Z,0.98
2022-08-07T23:18:44.959Z,1.20
2022-08-07T23:21:30.367Z,0.98
2022-08-07T23:24:27.975Z,1.00
2022-08-07T23:27:17.581Z,0.90
2022-08-07T23:30:37.642Z,0.90
2022-08-07T23:34:35.691Z,1.02
2022-08-07T23:36:29.121Z,0.75
2022-08-07T23:39:08.699Z,1.40
2022-08-07T23:42:04.637Z,1.00
2022-08-07T23:44:58.733Z,1.30
2022-08-07T23:47:51.600Z,1.15
2022-08-07T23:50:30.234Z,0.82
2022-08-07T23:53:11.785Z,0.98
2022-08-07T23:55:55.553Z,1.00
2022-08-07T23:58:27.464Z,0.75
